createdAt,value
2022-09-28T00:02:50.057Z,14.35
2022-09-28T00:07:51.935Z,11.48
2022-09-28T00:12:54.061Z,12.25
2022-09-28T00:17:55.868Z,7.38
2022-09-28T00:22:57.694Z,9.80
2022-09-28T00:27:59.552Z,9.88
2022-09-28T00:33:01.335Z,10.63
2022-09-28T00:38:03.215Z,9.25
2022-09-28T14:24:34.197Z,3.13
2022-09-28T14:29:37.019Z,4.15
2022-09-28T14:34:43.472Z,2.42
2022-09-28T14:39:46.286Z,4.45
2022-09-28T14:45:06.598Z,2.38
2022-09-28T14:50:21.640Z,6.28
2022-09-28T14:55:27.731Z,4.18
2022-09-28T15:00:29.873Z,3.85
2022-09-28T15:05:47.479Z,3.17
2022-09-28T15:10:52.367Z,5.97
2022-09-28T15:15:58.550Z,3.88
2022-09-28T15:21:00.554Z,2.60
2022-09-28T15:26:03.263Z,2.50
2022-09-28T15:31:05.265Z,3.97
2022-09-28T15:36:07.694Z,5.22
2022-09-28T15:41:09.669Z,2.47
2022-09-28T15:46:17.600Z,1.20
2022-09-28T15:51:20.107Z,1.05
2022-09-28T15:56:22.266Z,0.70
2022-09-28T16:01:42.876Z,1.23
2022-09-28T16:06:44.828Z,1.23
2022-09-28T16:11:46.648Z,0.60
2022-09-28T16:16:49.756Z,1.42
2022-09-28T16:21:52.837Z,0.80
2022-09-28T16:26:59.211Z,1.92
2022-09-28T16:32:19.702Z,3.13
2022-09-28T16:37:31.432Z,0.77
2022-09-28T16:42:33.339Z,0.98
2022-09-28T16:47:35.191Z,0.60
2022-09-28T16:52:37.122Z,3.03
2022-09-28T16:57:39.006Z,1.13
2022-09-28T17:02:46.775Z,0.70
2022-09-28T17:07:49.898Z,0.85
2022-09-28T17:12:51.838Z,3.05
2022-09-28T17:17:53.674Z,0.95
2022-09-28T17:22:55.792Z,1.70
2022-09-28T17:27:58.159Z,1.08
2022-09-28T17:32:59.980Z,1.58
2022-09-28T17:38:01.838Z,1.58
2022-09-28T17:43:03.739Z,1.58
2022-09-28T17:48:06.361Z,1.85
2022-09-28T17:53:08.693Z,1.57
